»·PEaware :: N352QN BGBW-CYYR

N352QN :: BGBW-CYYR

FLIGHT INFORMATION

Flight Status: Arrived
Operator: Privately registered:
United States
More flights under this callsign
Pilot: Jacob H. (10561)
Aircraft: Unknown
(EPIC)
More flights by this aircraft type
Origin: BGBW Narsarsuaq
Greenland
Destination: CYYR Goose Bay
Canada
More flights between these airports :: More routes between these airports
Route:
File this flight plan on PilotEdge
Remarks:
Altitude:
(Current/Filed)
22,000ft
Speed:
(Current/Filed)
310kts
Departed: 24-Aug-17 04:20 PM
Arrived: 24-Aug-17 08:31 PM
Distance/Time
Traveled:
674nm/4:11
Distance/Time
To Go:
Arrived

Flight Plot

Page will automatically refresh every two minutes.

Flight plan parsing failed; only flown route is shown


Map Options




Map Legend


Flown Route
Filed Route
Departure Airport
Arrival Airport
Navaid (VOR, NDB)
Fix

Horizontal Profiles

Position Reports

Time Latitude Longitude Heading Altitude Ground
Speed
24-Aug-17 16:21 61.166665 -45.415096 220 115ft 0kts
24-Aug-17 16:22 61.166665 -45.415096 220 115ft 0kts
24-Aug-17 16:23 61.166433 -45.415486 219 115ft 31kts
24-Aug-17 16:24 61.134500 -45.459399 204 1801ft 179kts
24-Aug-17 16:25 61.095649 -45.415984 136 4915ft 187kts
24-Aug-17 16:26 61.055004 -45.371851 170 7948ft 190kts
24-Aug-17 16:27 61.013946 -45.425114 237 10918ft 200kts
24-Aug-17 16:28 60.985305 -45.500762 230 13661ft 187kts
24-Aug-17 16:29 60.954267 -45.583873 231 15773ft 194kts
24-Aug-17 16:30 60.922766 -45.668611 230 17670ft 196kts
24-Aug-17 16:31 60.890596 -45.755083 230 19460ft 200kts
24-Aug-17 16:32 60.856708 -45.845910 231 21198ft 203kts
24-Aug-17 16:33 60.820477 -45.942603 231 21893ft 237kts
24-Aug-17 16:34 60.777951 -46.055638 231 21889ft 266kts
24-Aug-17 16:35 60.732703 -46.175254 231 21886ft 276kts
24-Aug-17 16:36 60.695289 -46.273693 231 21886ft 283kts
24-Aug-17 16:37 60.646903 -46.400368 231 21884ft 287kts
24-Aug-17 16:38 60.597778 -46.528262 231 21884ft 288kts
24-Aug-17 16:39 60.548375 -46.656175 230 21884ft 289kts
24-Aug-17 16:40 60.498612 -46.784301 230 21885ft 290kts
24-Aug-17 16:41 60.448634 -46.912284 230 21884ft 292kts
24-Aug-17 16:42 60.398015 -47.041183 230 21884ft 294kts
24-Aug-17 16:43 60.346995 -47.170384 230 21883ft 295kts
24-Aug-17 16:44 60.295707 -47.299540 230 21882ft 296kts
24-Aug-17 16:45 60.244057 -47.428884 230 21882ft 296kts
24-Aug-17 16:46 60.192394 -47.557540 230 21881ft 296kts
24-Aug-17 16:47 60.140739 -47.685438 229 21883ft 296kts
24-Aug-17 16:48 60.088561 -47.813959 229 21883ft 297kts
24-Aug-17 16:49 60.036349 -47.941837 229 21882ft 298kts
24-Aug-17 16:50 59.983791 -48.069854 229 21881ft 298kts
24-Aug-17 16:51 59.931149 -48.197368 229 21881ft 299kts
24-Aug-17 16:52 59.878238 -48.324829 229 21886ft 300kts
24-Aug-17 16:53 59.824843 -48.452741 229 21885ft 301kts
24-Aug-17 16:54 59.771227 -48.580481 229 21884ft 302kts
24-Aug-17 16:55 59.718078 -48.706401 229 21886ft 302kts
24-Aug-17 16:56 59.664048 -48.833735 229 21886ft 303kts
24-Aug-17 16:57 59.609812 -48.960844 229 21885ft 304kts
24-Aug-17 16:58 59.555192 -49.088214 228 21884ft 305kts
24-Aug-17 16:59 59.500143 -49.215800 228 21884ft 307kts
24-Aug-17 17:00 59.454025 -49.322109 228 21884ft 308kts
24-Aug-17 17:01 59.398205 -49.450172 228 21883ft 309kts
24-Aug-17 17:02 59.349837 -49.560584 228 21882ft 309kts
24-Aug-17 17:03 59.293725 -49.687991 227 21884ft 310kts
24-Aug-17 17:04 59.228032 -49.836310 227 21883ft 311kts
24-Aug-17 17:05 59.180828 -49.942290 227 21883ft 311kts
24-Aug-17 17:06 59.124104 -50.068995 227 21882ft 312kts
24-Aug-17 17:07 59.057422 -50.217060 227 21881ft 312kts
24-Aug-17 17:08 59.009692 -50.322442 227 21881ft 311kts
24-Aug-17 17:09 58.948583 -50.456621 228 21879ft 306kts
24-Aug-17 17:10 58.907294 -50.546846 229 21878ft 301kts
24-Aug-17 17:11 58.847489 -50.677037 228 21888ft 296kts
24-Aug-17 17:12 58.805191 -50.768700 228 21888ft 296kts
24-Aug-17 17:13 58.754475 -50.878044 228 21887ft 295kts
24-Aug-17 17:14 58.702762 -50.989050 228 21886ft 296kts
24-Aug-17 17:15 58.650404 -51.100857 228 21885ft 298kts
24-Aug-17 17:16 58.596434 -51.215510 228 21884ft 299kts
24-Aug-17 17:17 58.542771 -51.328949 228 21883ft 299kts
24-Aug-17 17:18 58.489304 -51.441445 228 21882ft 299kts
24-Aug-17 17:19 58.437245 -51.550467 228 21882ft 299kts
24-Aug-17 17:20 58.385133 -51.659056 227 21883ft 299kts
24-Aug-17 17:21 58.331798 -51.769683 227 21884ft 299kts
24-Aug-17 17:22 58.279737 -51.877158 227 21883ft 299kts
24-Aug-17 17:23 58.228849 -51.981726 227 21883ft 299kts
24-Aug-17 17:24 58.178585 -52.084533 227 21882ft 298kts
24-Aug-17 17:25 58.128096 -52.187360 227 21881ft 298kts
24-Aug-17 17:26 58.078986 -52.286927 227 21880ft 298kts
24-Aug-17 17:27 58.028340 -52.389154 227 21879ft 298kts
24-Aug-17 17:28 57.976546 -52.493258 227 21878ft 298kts
24-Aug-17 17:29 57.921444 -52.603461 227 21877ft 298kts
24-Aug-17 17:30 57.864714 -52.716364 226 21855ft 299kts
24-Aug-17 17:31 57.807286 -52.830132 226 21810ft 301kts
24-Aug-17 17:32 57.749528 -52.943989 226 21773ft 303kts
24-Aug-17 17:33 57.691030 -53.058707 226 21771ft 306kts
24-Aug-17 17:34 57.632499 -53.172892 226 21771ft 307kts
24-Aug-17 17:35 57.573356 -53.287714 226 21770ft 308kts
24-Aug-17 17:36 57.514023 -53.402339 226 21769ft 308kts
24-Aug-17 17:37 57.454661 -53.516449 226 21768ft 307kts
24-Aug-17 17:38 57.395572 -53.629465 226 21767ft 307kts
24-Aug-17 17:39 57.335842 -53.743140 225 21770ft 308kts
24-Aug-17 17:40 57.276098 -53.856295 225 21770ft 308kts
24-Aug-17 17:41 57.216267 -53.969042 225 21769ft 308kts
24-Aug-17 17:42 57.156425 -54.081266 225 21768ft 307kts
24-Aug-17 17:43 57.096529 -54.193007 226 21768ft 306kts
24-Aug-17 17:44 57.037097 -54.303302 226 21765ft 299kts
24-Aug-17 17:45 56.979391 -54.409934 227 21763ft 290kts
24-Aug-17 17:46 56.923483 -54.512887 227 21752ft 283kts
24-Aug-17 17:47 56.868374 -54.613890 227 21759ft 278kts
24-Aug-17 17:48 56.814080 -54.712866 227 21766ft 276kts
24-Aug-17 17:49 56.759583 -54.811819 227 21765ft 276kts
24-Aug-17 17:50 56.705157 -54.910217 227 21764ft 276kts
24-Aug-17 17:51 56.650808 -55.008070 227 21762ft 276kts
24-Aug-17 17:52 56.595675 -55.106873 227 21761ft 280kts
24-Aug-17 17:53 56.539760 -55.206654 226 21760ft 285kts
24-Aug-17 17:54 56.482893 -55.307675 226 21760ft 288kts
24-Aug-17 17:55 56.425424 -55.409305 226 21758ft 289kts
24-Aug-17 17:56 56.368005 -55.510399 226 21757ft 289kts
24-Aug-17 17:57 56.310428 -55.611349 226 21756ft 289kts
24-Aug-17 17:58 56.252817 -55.711879 226 21761ft 289kts
24-Aug-17 17:59 56.195016 -55.812313 226 21761ft 289kts
24-Aug-17 18:00 56.137168 -55.912392 226 21759ft 289kts
24-Aug-17 18:01 56.079010 -56.012546 226 21759ft 289kts
24-Aug-17 18:02 56.021036 -56.111962 226 21758ft 289kts
24-Aug-17 18:03 55.963067 -56.210928 226 21757ft 289kts
24-Aug-17 18:04 55.904866 -56.309872 226 21756ft 289kts
24-Aug-17 18:05 55.846717 -56.408265 226 21761ft 289kts
24-Aug-17 18:06 55.788331 -56.506640 226 21760ft 290kts
24-Aug-17 18:07 55.729814 -56.604835 226 21759ft 289kts
24-Aug-17 18:08 55.671305 -56.702558 225 21764ft 290kts
24-Aug-17 18:09 55.612605 -56.800208 225 21763ft 290kts
24-Aug-17 18:10 55.553809 -56.897592 225 21762ft 290kts
24-Aug-17 18:11 55.494701 -56.995054 225 21761ft 293kts
24-Aug-17 18:12 55.434780 -57.093439 225 21761ft 297kts
24-Aug-17 18:13 55.374051 -57.192705 225 21760ft 300kts
24-Aug-17 18:14 55.312846 -57.292317 225 21759ft 301kts
24-Aug-17 18:15 55.251357 -57.391951 225 21758ft 301kts
24-Aug-17 18:16 55.189993 -57.490946 225 21758ft 301kts
24-Aug-17 18:17 55.128446 -57.589798 225 21757ft 301kts
24-Aug-17 18:18 55.066959 -57.688110 224 21761ft 301kts
24-Aug-17 18:19 55.005291 -57.786341 224 21760ft 300kts
24-Aug-17 18:20 54.944300 -57.883057 224 21758ft 294kts
24-Aug-17 18:21 54.911708 -57.934585 224 21757ft 290kts
24-Aug-17 18:22 54.911708 -57.934585 224 21757ft 290kts
24-Aug-17 18:23 54.911708 -57.934585 224 21757ft 290kts
24-Aug-17 18:24 54.911708 -57.934585 224 21757ft 290kts
24-Aug-17 18:25 54.911708 -57.934585 224 21757ft 290kts
24-Aug-17 18:26 54.911708 -57.934585 224 21757ft 290kts
24-Aug-17 18:27 54.911708 -57.934585 224 21757ft 290kts
24-Aug-17 18:28 54.911708 -57.934585 224 21757ft 290kts
24-Aug-17 18:29 54.911708 -57.934585 224 21757ft 290kts
24-Aug-17 18:30 54.911708 -57.934585 224 21757ft 290kts
24-Aug-17 18:31 54.911708 -57.934585 224 21757ft 290kts
24-Aug-17 18:32 54.911708 -57.934585 224 21757ft 290kts
24-Aug-17 18:33 54.911708 -57.934585 224 21757ft 290kts
24-Aug-17 18:34 54.911708 -57.934585 224 21757ft 290kts
24-Aug-17 18:35 54.911708 -57.934585 224 21757ft 290kts
24-Aug-17 18:36 54.911708 -57.934585 224 21757ft 290kts
24-Aug-17 18:37 54.911708 -57.934585 224 21757ft 290kts
24-Aug-17 18:38 54.911708 -57.934585 224 21757ft 290kts
24-Aug-17 18:39 54.911708 -57.934585 224 21757ft 290kts
24-Aug-17 18:40 54.911708 -57.934585 224 21757ft 290kts
24-Aug-17 18:41 54.911708 -57.934585 224 21757ft 290kts
24-Aug-17 18:42 54.911708 -57.934585 224 21757ft 290kts
24-Aug-17 18:43 54.911708 -57.934585 224 21757ft 290kts
24-Aug-17 18:44 54.911708 -57.934585 224 21757ft 290kts
24-Aug-17 18:45 54.911708 -57.934585 224 21757ft 290kts
24-Aug-17 18:46 54.911708 -57.934585 224 21757ft 290kts
24-Aug-17 18:47 54.911708 -57.934585 224 21757ft 290kts
24-Aug-17 18:48 54.911708 -57.934585 224 21757ft 290kts
24-Aug-17 18:49 54.911708 -57.934585 224 21757ft 290kts
24-Aug-17 18:50 54.911708 -57.934585 224 21757ft 290kts
24-Aug-17 18:51 54.911708 -57.934585 224 21757ft 290kts
24-Aug-17 18:52 54.911708 -57.934585 224 21757ft 290kts
24-Aug-17 18:53 54.911708 -57.934585 224 21757ft 290kts
24-Aug-17 18:54 54.911708 -57.934585 224 21757ft 290kts
24-Aug-17 18:55 54.911708 -57.934585 224 21757ft 290kts
24-Aug-17 18:56 54.911708 -57.934585 224 21757ft 290kts
24-Aug-17 18:57 54.911708 -57.934585 224 21757ft 290kts
24-Aug-17 18:58 54.911708 -57.934585 224 21757ft 290kts
24-Aug-17 18:59 54.911708 -57.934585 224 21757ft 290kts
24-Aug-17 19:00 54.911708 -57.934585 224 21757ft 290kts
24-Aug-17 19:01 54.911708 -57.934585 224 21757ft 290kts
24-Aug-17 19:02 54.911708 -57.934585 224 21757ft 290kts
24-Aug-17 19:03 54.911708 -57.934585 224 21757ft 290kts
24-Aug-17 19:04 54.911708 -57.934585 224 21757ft 290kts
24-Aug-17 19:05 54.911708 -57.934585 224 21757ft 290kts
24-Aug-17 19:06 54.911708 -57.934585 224 21757ft 290kts
24-Aug-17 19:07 54.911708 -57.934585 224 21757ft 290kts
24-Aug-17 19:08 54.911708 -57.934585 224 21757ft 290kts
24-Aug-17 19:09 54.911708 -57.934585 224 21757ft 290kts
24-Aug-17 19:10 54.911708 -57.934585 224 21757ft 290kts
24-Aug-17 19:11 54.911708 -57.934585 224 21757ft 290kts
24-Aug-17 19:12 54.911708 -57.934585 224 21757ft 290kts
24-Aug-17 19:13 54.911708 -57.934585 224 21757ft 290kts
24-Aug-17 19:14 54.911708 -57.934585 224 21757ft 290kts
24-Aug-17 19:15 54.911708 -57.934585 224 21757ft 290kts
24-Aug-17 19:16 54.911708 -57.934585 224 21757ft 290kts
24-Aug-17 19:17 54.911708 -57.934585 224 21757ft 290kts
24-Aug-17 19:18 54.911708 -57.934585 224 21757ft 290kts
24-Aug-17 19:19 54.911708 -57.934585 224 21757ft 290kts
24-Aug-17 19:20 54.911708 -57.934585 224 21757ft 290kts
24-Aug-17 19:21 54.911708 -57.934585 224 21757ft 290kts
24-Aug-17 19:22 54.911708 -57.934585 224 21757ft 290kts
24-Aug-17 19:23 54.911708 -57.934585 224 21757ft 290kts
24-Aug-17 19:24 54.911708 -57.934585 224 21757ft 290kts
24-Aug-17 19:25 54.911708 -57.934585 224 21757ft 290kts
24-Aug-17 19:26 54.911708 -57.934585 224 21757ft 290kts
24-Aug-17 19:27 54.911708 -57.934585 224 21757ft 290kts
24-Aug-17 19:28 54.911708 -57.934585 224 21757ft 290kts
24-Aug-17 19:29 54.911708 -57.934585 224 21757ft 290kts
24-Aug-17 19:30 54.911708 -57.934585 224 21757ft 290kts
24-Aug-17 19:31 54.911708 -57.934585 224 21757ft 290kts
24-Aug-17 19:32 54.911708 -57.934585 224 21757ft 290kts
24-Aug-17 19:33 54.911708 -57.934585 224 21757ft 290kts
24-Aug-17 19:34 54.911708 -57.934585 224 21757ft 290kts
24-Aug-17 19:35 54.911708 -57.934585 224 21757ft 290kts
24-Aug-17 19:36 54.911708 -57.934585 224 21757ft 290kts
24-Aug-17 19:37 54.911708 -57.934585 224 21757ft 290kts
24-Aug-17 19:38 54.911708 -57.934585 224 21757ft 290kts
24-Aug-17 19:39 54.911708 -57.934585 224 21757ft 290kts
24-Aug-17 19:40 54.911708 -57.934585 224 21757ft 290kts
24-Aug-17 19:41 54.911708 -57.934585 224 21757ft 290kts
24-Aug-17 19:42 54.911708 -57.934585 224 21757ft 290kts
24-Aug-17 19:43 54.911708 -57.934585 224 21757ft 290kts
24-Aug-17 19:44 54.911708 -57.934585 224 21757ft 290kts
24-Aug-17 19:45 54.911708 -57.934585 224 21757ft 290kts
24-Aug-17 19:46 54.911708 -57.934585 224 21757ft 290kts
24-Aug-17 19:47 54.911708 -57.934585 224 21757ft 290kts
24-Aug-17 19:48 54.911708 -57.934585 224 21757ft 290kts
24-Aug-17 19:49 54.911708 -57.934585 224 21757ft 290kts
24-Aug-17 19:50 54.911708 -57.934585 224 21757ft 290kts
24-Aug-17 19:51 54.911708 -57.934585 224 21757ft 290kts
24-Aug-17 19:52 54.911708 -57.934585 224 21757ft 290kts
24-Aug-17 19:53 54.911708 -57.934585 224 21757ft 290kts
24-Aug-17 19:54 54.911708 -57.934585 224 21757ft 290kts
24-Aug-17 19:55 54.911708 -57.934585 224 21757ft 290kts
24-Aug-17 19:56 54.911708 -57.934585 224 21757ft 290kts
24-Aug-17 19:57 54.911708 -57.934585 224 21757ft 290kts
24-Aug-17 19:58 54.911708 -57.934585 224 21757ft 290kts
24-Aug-17 19:59 54.911708 -57.934585 224 21757ft 290kts
24-Aug-17 20:00 54.911708 -57.934585 224 21757ft 290kts
24-Aug-17 20:01 54.911708 -57.934585 224 21757ft 290kts
24-Aug-17 20:02 54.911708 -57.934585 224 21757ft 290kts
24-Aug-17 20:03 54.855845 -58.022501 224 21800ft 294kts
24-Aug-17 20:04 54.794995 -58.117976 224 21799ft 296kts
24-Aug-17 20:05 54.734050 -58.213183 224 21798ft 296kts
24-Aug-17 20:06 54.672953 -58.308221 224 21797ft 296kts
24-Aug-17 20:07 54.611780 -58.402978 224 21796ft 296kts
24-Aug-17 20:08 54.550579 -58.497392 224 21795ft 296kts
24-Aug-17 20:09 54.489289 -58.591530 224 21795ft 296kts
24-Aug-17 20:10 54.429115 -58.683562 223 21799ft 296kts
24-Aug-17 20:11 54.368230 -58.776334 223 21798ft 296kts
24-Aug-17 20:12 54.306896 -58.869357 223 21797ft 297kts
24-Aug-17 20:13 54.245497 -58.962175 223 21068ft 319kts
24-Aug-17 20:14 54.178290 -59.063255 223 19069ft 308kts
24-Aug-17 20:15 54.116266 -59.156193 223 17079ft 300kts
24-Aug-17 20:16 54.054277 -59.248690 223 15083ft 299kts
24-Aug-17 20:17 53.993388 -59.339170 223 13127ft 299kts
24-Aug-17 20:18 53.935037 -59.425446 223 11199ft 288kts
24-Aug-17 20:19 53.879324 -59.507554 223 9331ft 286kts
24-Aug-17 20:20 53.820370 -59.594157 224 7299ft 278kts
24-Aug-17 20:21 53.766364 -59.673357 222 5319ft 257kts
24-Aug-17 20:22 53.708601 -59.744088 204 3323ft 265kts
24-Aug-17 20:23 53.641842 -59.792210 203 1879ft 255kts
24-Aug-17 20:24 53.588303 -59.859175 233 1922ft 249kts
24-Aug-17 20:25 53.544274 -59.948334 228 2092ft 254kts
24-Aug-17 20:26 53.498622 -60.037307 230 2114ft 253kts
24-Aug-17 20:27 53.458604 -60.131398 231 1873ft 246kts
24-Aug-17 20:28 53.416409 -60.216012 231 1869ft 228kts
24-Aug-17 20:29 53.378186 -60.292453 231 1677ft 203kts
24-Aug-17 20:30 53.344049 -60.363060 233 1152ft 187kts
24-Aug-17 20:31 53.331482 -60.391099 236 821ft 184kts
24-Aug-17 20:32 53.309307 -60.452319 243 692ft 140kts
24-Aug-17 20:33 53.286020 -60.457984 68 840ft 116kts
24-Aug-17 20:34 53.310959 -60.431419 52 164ft 71kts
24-Aug-17 20:35 53.315747 -60.416452 144 164ft 0kts
24-Aug-17 20:36 53.315747 -60.416452 144 164ft 0kts

Navigation Log

Ident Type
Flight plan parsing failed, navigation log unavailable